Zarechensk — ONGC — position and weather

sailwx.info

Track history (hours):
 
Tides and Currents Weather Stations Pressure Air Temp Water Temp Dewpoint Dewpoint Depression Visibility Wind Speed Wind Dir Waves Ship Positions

Zarechensk

Last reported at 2015-Apr-01 04:20 UTC. Time now 2015-Apr-01 05:57 UTC.
Position N 36°34' W 000°43'.

Length 180 m; draft 9.5 m.

MMSI: 205561000.

Date/timePositionNaut miles runAvg speedWind from/ knotsBaromVisibWave heightAir tempDewpointWater temp
2015-Apr-01 04:20N 36°34' W 000°43'  
2015-Mar-27 20:33N 36°00' W 005°15'26410.5
2015-Mar-26 19:27N 38°17' W 009°58'1112.1
2015-Mar-26 18:33N 38°28' W 010°01'1212.2
2015-Mar-26 17:33N 38°40' W 010°05'  
2015-Mar-23 12:19N 50°36' E 000°18'7 9.8
2015-Mar-23 11:33N 50°38' E 000°29'10 9.7
2015-Mar-23 10:33N 50°43' E 000°42'1111.2
2015-Mar-23 09:33N 50°49' E 000°57'1713.5
2015-Mar-23 08:17N 50°60' E 001°19'1014.2
2015-Mar-23 07:33N 51°06' E 001°31'1312.7
2015-Mar-23 06:34N 51°15' E 001°46'1111.1
2015-Mar-23 05:33N 51°25' E 001°53'10 9.8
2015-Mar-23 04:33N 51°33' E 002°02'10 9.6
2015-Mar-23 03:33N 51°39' E 002°14'2210.1
2015-Mar-23 01:23N 51°57' E 002°35'10012.5
2015-Mar-22 17:22N 53°31' E 003°33'  
Track history (hours):
 
Tides and Currents Weather Stations Pressure Air Temp Water Temp Dewpoint Dewpoint Depression Visibility Wind Speed Wind Dir Waves Ship Positions

Zarechensk

Last reported at 2015-Apr-01 04:20 UTC. Time now 2015-Apr-01 05:57 UTC.
Position N 36°34' W 000°43'.

Length 180 m; draft 9.5 m.

MMSI: 205561000.

Date/timePositionNaut miles runAvg speedWind from/ knotsBaromVisibWave heightAir tempDewpointWater temp
2015-Apr-01 04:20N 36°34' W 000°43'  
2015-Mar-27 20:33N 36°00' W 005°15'26410.5
2015-Mar-26 19:27N 38°17' W 009°58'1112.1
2015-Mar-26 18:33N 38°28' W 010°01'1212.2
2015-Mar-26 17:33N 38°40' W 010°05'  
2015-Mar-23 12:19N 50°36' E 000°18'7 9.8
2015-Mar-23 11:33N 50°38' E 000°29'10 9.7
2015-Mar-23 10:33N 50°43' E 000°42'1111.2
2015-Mar-23 09:33N 50°49' E 000°57'1713.5
2015-Mar-23 08:17N 50°60' E 001°19'1014.2
2015-Mar-23 07:33N 51°06' E 001°31'1312.7
2015-Mar-23 06:34N 51°15' E 001°46'1111.1
2015-Mar-23 05:33N 51°25' E 001°53'10 9.8
2015-Mar-23 04:33N 51°33' E 002°02'10 9.6
2015-Mar-23 03:33N 51°39' E 002°14'2210.1
2015-Mar-23 01:23N 51°57' E 002°35'10012.5
2015-Mar-22 17:22N 53°31' E 003°33'  

Dump ship's entire track history